Detall de PIREP

Printer-friendly versionPDF version

[2016/12/17 09:57:00]
Flight IATA:CT3204
Pilot Number:012
Company ICAO:CAT
Aircraft Type:MD11/E
PAX:192
Aircraft Registration:PAX
Departing Airport: LEPA
Destination Airport: EDDT
Alternate Airport:LKPR
Online: VATSIM
Route:MEROS/N0464F380 UN853 LUMAS UM976 SOFFY UQ208 MOBLO UZ662 LAMUR UZ67 KORED UN871 DITON T163 ZUE T125 ROMIR UN851 LOHRE/N0462F390 UN746 ROBEL T200 LELMA
Flight Level:F390
No Slew and time accel
No pause
Crash detect
Detect pilot in Cockpit between each 30 and 45 minutes
09:57 Zero fuel Weight: 362531 Lbs, Fuel Weight: 56792 Lbs
09:57 VATSIM:LEPA 170930Z 07011KT 9999 FEW028 15/10 Q1029 NOSIG
09:57 VATSIM:EDDT 170920Z 28006KT 260V320 1400 R26R/P2000N R26L/P2000N BR OVC003 M01/M01 Q1036 NOSIG
09:58 Parking Brakes off
10:02 Take-off
10:02 Take off Weight: 418353 Lbs
10:02 Wind: 069º @ 011 Knots Heading: 057º
10:02 POS N39º 32´ 51´´ E002º 44´ 41´´
10:02 Gear Up: 187 Knots
10:02 Flaps:3 at 187 Knots
10:03 Flaps:2 at 172 Knots
10:03 Flaps:3 at 172 Knots
10:03 Flaps:2 at 173 Knots
10:03 Flaps:1 at 174 Knots
10:03 Flaps:0 at 199 Knots
10:17 Wind:090º@028 Knots Heading: 026º Ground Speed: 462 Knots Altitude 38520 ft
10:32 Wind:060º@020 Knots Heading: 016º Ground Speed: 454 Knots Altitude 38648 ft
10:47 Wind:050º@017 Knots Heading: 019º Ground Speed: 452 Knots Altitude 38651 ft
11:02 Wind:029º@013 Knots Heading: 022º Ground Speed: 447 Knots Altitude 38684 ft
11:17 Wind:022º@015 Knots Heading: 045º Ground Speed: 446 Knots Altitude 38700 ft
11:32 Wind:324º@009 Knots Heading: 002º Ground Speed: 442 Knots Altitude 38684 ft
11:37 TOC
11:37 Fuel Weight: 27932 Lb
11:47 Wind:308º@009 Knots Heading: 032º Ground Speed: 446 Knots Altitude 39681 ft
11:55 TOD
11:55 Fuel Weight: 23853 Lb
12:02 Wind:250º@012 Knots Heading: 056º Ground Speed: 407 Knots Altitude 24274 ft
12:14 Flaps:1 at 223 Knots
12:15 Flaps:2 at 217 Knots
12:15 Flaps:3 at 211 Knots
12:15 Flaps:4 at 187 Knots
12:15 Flaps:3 at 185 Knots
12:15 Flaps:4 at 184 Knots
12:15 Flaps:5 at 181 Knots
12:15 Flaps:6 at 178 Knots
12:16 Gear Down: 154 Knots
12:16 Flaps:7 at 151 Knots
12:16 Flaps:8 at 151 Knots
12:16 Flaps:7 at 151 Knots
12:17 Wind:301º@009 Knots Heading: 277º Ground Speed: 136 Knots Altitude 4668 ft
12:21 TouchDown:Rate -306 ft/min Speed: 152 Knots
12:21 VATSIM:EDDT 171150Z 26005KT 2300 BR FEW001 OVC003 M01/M01 Q1036 NOSIG
12:21 Land
12:21 Wind:314º@005 Knots
12:21 Heading: 262º
12:21 Flight Duration: 02:19
12:21 Landing Weight: 382260 Lbs
12:21 POS N52º 33´ 25´´ E013º 16´ 48´´
12:22 Parking brakes on
12:22 Block to Block Duration: 02:24
12:22 Final Fuel: 19658 Lbls
12:22 Spent Fuel: 37134 Lbls
12:22 Flight Length: 969 NM
12:22 TOD Land Length: 134 NM

Exportar CSV

Powered by Drupal - Modified by Danger4k